Terminal Aerodrome Forecast
Issued by NWS Mt. Holly, NJ

Home | Current Version | Previous Version | Text Only | Print | Product List | Glossary On
Versions: 1 2 3 4 5 6 7 8 9 10 11 12 13 14
000
FTUS41 KPHI 191700 RRA
TAFTTN
TAF
KTTN 191745Z 1918/2018 13010KT P6SM SCT035
     FM200300 12006KT P6SM BKN035
     FM200700 14004KT P6SM OVC025
     FM201000 16004KT P6SM OVC015
     FM201400 17006KT P6SM BKN025
     FM201600 19010KT P6SM BKN035=

USA.gov is the U.S. government's official web portal to all federal, state and local government web resources and services.